createdAt,value
2023-04-30T00:00:08.270Z,0.00
2023-04-30T00:01:08.214Z,0.00
2023-04-30T00:02:08.256Z,0.00
2023-04-30T00:03:08.317Z,0.00
2023-04-30T00:04:08.227Z,0.00
2023-04-30T00:05:08.154Z,0.00
2023-04-30T00:06:08.225Z,0.00
2023-04-30T00:07:08.137Z,0.00
2023-04-30T00:08:08.126Z,0.00
2023-04-30T00:09:08.143Z,0.00
2023-04-30T00:10:08.102Z,0.00
2023-04-30T00:11:08.118Z,0.00
2023-04-30T00:12:08.091Z,0.00
2023-04-30T00:13:08.072Z,0.00
2023-04-30T00:14:08.076Z,0.00
2023-04-30T00:15:08.057Z,0.00
2023-04-30T00:16:08.078Z,0.00
2023-04-30T00:17:08.051Z,0.00
2023-04-30T00:18:08.929Z,0.00
2023-04-30T00:19:08.007Z,0.00
2023-04-30T00:20:08.074Z,0.00
2023-04-30T00:21:08.000Z,0.00
2023-04-30T00:22:07.980Z,0.00
2023-04-30T00:23:07.979Z,0.00
2023-04-30T00:24:07.980Z,0.00
2023-04-30T00:25:07.967Z,0.00
2023-04-30T00:26:07.925Z,0.00
2023-04-30T00:27:08.826Z,0.00
2023-04-30T00:28:07.905Z,0.00
2023-04-30T00:29:07.890Z,0.00
2023-04-30T00:30:07.885Z,0.00
2023-04-30T00:31:07.873Z,0.00
2023-04-30T00:32:07.915Z,0.00
2023-04-30T00:33:07.943Z,0.00
2023-04-30T00:34:07.834Z,0.00
2023-04-30T00:35:07.823Z,0.00
2023-04-30T00:36:07.821Z,0.00
2023-04-30T00:37:07.821Z,0.00
2023-04-30T00:38:07.795Z,0.00
2023-04-30T00:39:07.787Z,0.00
2023-04-30T00:40:07.786Z,0.00
2023-04-30T00:41:07.780Z,0.00
2023-04-30T00:42:07.768Z,0.00
2023-04-30T00:43:07.736Z,0.00
2023-04-30T00:44:07.740Z,0.00
2023-04-30T00:45:07.725Z,0.00
2023-04-30T00:46:07.899Z,0.00
2023-04-30T00:47:07.711Z,0.00
2023-04-30T00:48:07.788Z,0.00
2023-04-30T00:49:07.672Z,0.00
2023-04-30T00:50:07.663Z,0.00
2023-04-30T00:51:07.679Z,0.00
2023-04-30T00:52:07.634Z,0.00
2023-04-30T00:53:07.684Z,0.00
2023-04-30T00:54:07.625Z,0.00
2023-04-30T00:55:07.610Z,0.00
2023-04-30T00:56:07.628Z,0.00
2023-04-30T00:57:07.613Z,0.00
2023-04-30T00:58:07.613Z,0.00
2023-04-30T00:59:07.560Z,0.00
2023-04-30T01:00:07.552Z,0.00
2023-04-30T01:01:07.595Z,0.00
2023-04-30T01:02:07.534Z,0.00
2023-04-30T01:03:07.652Z,0.00
2023-04-30T01:04:07.510Z,0.00
2023-04-30T01:05:07.520Z,0.00
2023-04-30T01:06:07.551Z,0.00
2023-04-30T01:07:07.465Z,0.00
2023-04-30T01:08:07.453Z,0.00
2023-04-30T01:09:07.474Z,0.00
2023-04-30T01:10:08.323Z,0.00
2023-04-30T01:11:07.413Z,0.00
2023-04-30T01:12:07.419Z,0.00
2023-04-30T01:13:07.422Z,0.00
2023-04-30T01:14:07.392Z,0.00
2023-04-30T01:15:07.375Z,0.00
2023-04-30T01:16:07.421Z,0.00
2023-04-30T01:17:07.362Z,0.00
2023-04-30T01:18:07.443Z,0.00
2023-04-30T01:19:07.410Z,0.00
2023-04-30T01:20:07.329Z,0.00
2023-04-30T01:21:07.307Z,0.00
2023-04-30T01:22:07.417Z,0.00
2023-04-30T01:23:07.310Z,0.00
2023-04-30T01:24:07.273Z,0.00
2023-04-30T01:25:07.270Z,0.00
2023-04-30T01:26:07.269Z,0.00
2023-04-30T01:27:07.257Z,0.00
2023-04-30T01:28:07.255Z,0.00
2023-04-30T01:29:07.241Z,0.00
2023-04-30T01:30:07.206Z,0.00
2023-04-30T01:31:07.224Z,0.00
2023-04-30T01:32:07.204Z,0.00
2023-04-30T01:33:07.205Z,0.00
2023-04-30T01:34:07.167Z,0.00
2023-04-30T01:35:07.165Z,0.00
2023-04-30T01:36:07.142Z,0.00
2023-04-30T01:37:07.149Z,0.00
2023-04-30T01:38:07.137Z,0.00
2023-04-30T01:39:07.107Z,0.00
2023-04-30T01:40:07.095Z,0.00
2023-04-30T01:41:07.092Z,0.00
2023-04-30T01:42:07.087Z,0.00
2023-04-30T01:43:07.081Z,0.00
2023-04-30T01:44:07.060Z,0.00
2023-04-30T01:45:07.056Z,0.00
2023-04-30T01:46:07.038Z,0.00
2023-04-30T01:47:07.047Z,0.00
2023-04-30T01:48:07.151Z,0.00
2023-04-30T01:49:06.997Z,0.00
2023-04-30T01:50:06.984Z,0.00
2023-04-30T01:51:06.976Z,0.00
2023-04-30T01:52:06.962Z,0.00
2023-04-30T01:53:06.967Z,0.00
2023-04-30T01:54:06.942Z,0.00
2023-04-30T01:55:06.945Z,0.00
2023-04-30T01:56:06.941Z,0.00
2023-04-30T01:57:06.931Z,0.00
2023-04-30T01:58:06.909Z,0.00
2023-04-30T01:59:06.889Z,0.00
2023-04-30T02:00:06.894Z,0.00
2023-04-30T02:01:06.929Z,0.00
2023-04-30T02:02:06.883Z,0.00
2023-04-30T02:03:06.990Z,0.00
2023-04-30T02:04:06.912Z,0.00
2023-04-30T02:05:07.353Z,0.00
2023-04-30T02:06:06.854Z,0.00
2023-04-30T02:07:06.825Z,0.00
2023-04-30T02:08:06.811Z,0.00
2023-04-30T02:09:06.798Z,0.00
2023-04-30T02:10:06.782Z,0.00
2023-04-30T02:11:06.762Z,0.00
2023-04-30T02:12:06.743Z,0.00
2023-04-30T02:13:06.729Z,0.00
2023-04-30T02:14:06.767Z,0.00
2023-04-30T02:15:06.714Z,0.00
2023-04-30T02:16:06.732Z,0.00
2023-04-30T02:17:06.750Z,0.00
2023-04-30T02:18:06.723Z,0.00
2023-04-30T02:19:06.718Z,0.00
2023-04-30T02:20:06.646Z,0.00
2023-04-30T02:21:06.635Z,0.00
2023-04-30T02:22:06.637Z,0.00
2023-04-30T02:23:06.652Z,0.00
2023-04-30T02:24:06.603Z,0.00
2023-04-30T02:25:06.592Z,0.00
2023-04-30T02:26:06.582Z,0.00
2023-04-30T02:27:06.583Z,0.00
2023-04-30T02:28:06.580Z,0.00
2023-04-30T02:29:06.544Z,0.00
2023-04-30T02:30:06.536Z,0.00
2023-04-30T02:31:06.526Z,0.00
2023-04-30T02:32:06.517Z,0.00
2023-04-30T02:33:06.589Z,0.00
2023-04-30T02:34:06.504Z,0.00
2023-04-30T02:35:06.482Z,0.00
2023-04-30T02:36:06.491Z,0.00
2023-04-30T02:37:06.492Z,0.00
2023-04-30T02:38:06.446Z,0.00
2023-04-30T02:39:06.439Z,0.00
2023-04-30T02:40:06.427Z,0.00
2023-04-30T02:41:06.430Z,0.00
2023-04-30T02:42:06.416Z,0.00
2023-04-30T02:43:06.428Z,0.00
2023-04-30T02:44:06.376Z,0.00
2023-04-30T02:45:06.380Z,0.00
2023-04-30T02:46:06.413Z,0.00
2023-04-30T02:47:06.344Z,0.00
2023-04-30T02:48:06.568Z,0.00
2023-04-30T02:49:06.347Z,0.00
2023-04-30T02:50:06.335Z,0.00
2023-04-30T02:51:06.320Z,0.00
2023-04-30T02:52:06.298Z,0.00
2023-04-30T02:53:06.274Z,0.00
2023-04-30T02:54:06.264Z,0.00
2023-04-30T02:55:06.271Z,0.00
2023-04-30T02:56:06.243Z,0.00
2023-04-30T02:57:06.242Z,0.00
2023-04-30T02:58:06.217Z,0.00
2023-04-30T02:59:06.214Z,0.00
2023-04-30T03:00:06.868Z,0.00
2023-04-30T03:01:06.223Z,0.00
2023-04-30T03:02:06.217Z,0.00
2023-04-30T03:03:06.285Z,0.00
2023-04-30T03:04:06.179Z,0.00
2023-04-30T03:05:06.190Z,0.00
2023-04-30T03:06:06.170Z,0.00
2023-04-30T03:07:06.132Z,0.00
2023-04-30T03:08:06.109Z,0.00
2023-04-30T03:09:06.106Z,0.00
2023-04-30T03:10:06.103Z,0.00
2023-04-30T03:11:06.076Z,0.00
2023-04-30T03:12:06.062Z,0.00
2023-04-30T03:13:06.057Z,0.00
2023-04-30T03:14:06.050Z,0.00
2023-04-30T03:15:06.047Z,0.00
2023-04-30T03:16:06.049Z,0.00
2023-04-30T03:17:06.042Z,0.00
2023-04-30T03:18:06.056Z,0.00
2023-04-30T03:19:06.029Z,0.00
2023-04-30T03:20:06.006Z,0.00
2023-04-30T03:21:05.990Z,0.00
2023-04-30T03:22:05.958Z,0.00
2023-04-30T03:23:05.945Z,0.00
2023-04-30T03:24:05.953Z,0.00
2023-04-30T03:25:05.939Z,0.00
2023-04-30T03:26:05.920Z,0.00
2023-04-30T03:27:05.919Z,0.00
2023-04-30T03:28:05.909Z,0.00
2023-04-30T03:29:05.989Z,0.00
2023-04-30T03:30:05.884Z,0.00
2023-04-30T03:31:05.928Z,0.00
2023-04-30T03:32:05.867Z,0.00
2023-04-30T03:33:05.921Z,5.62
2023-04-30T03:34:05.827Z,5.62
2023-04-30T03:35:05.823Z,5.62
2023-04-30T03:36:05.807Z,5.62
2023-04-30T03:37:05.828Z,5.62
2023-04-30T03:38:05.797Z,5.62
2023-04-30T03:39:05.777Z,5.62
2023-04-30T03:40:05.762Z,5.62
2023-04-30T03:41:05.798Z,5.62
2023-04-30T03:42:05.776Z,11.25
2023-04-30T03:43:05.764Z,11.25
2023-04-30T03:44:05.713Z,11.25
2023-04-30T03:45:05.719Z,11.25
2023-04-30T03:46:05.771Z,11.25
2023-04-30T03:47:05.682Z,11.25
2023-04-30T03:48:05.732Z,11.25
2023-04-30T03:49:05.668Z,16.88
2023-04-30T03:50:05.706Z,16.88
2023-04-30T03:51:05.638Z,16.88
2023-04-30T03:52:05.648Z,16.88
2023-04-30T03:53:05.671Z,16.88
2023-04-30T03:54:05.624Z,22.50
2023-04-30T03:55:05.595Z,22.50
2023-04-30T03:56:05.583Z,22.50
2023-04-30T03:57:05.647Z,22.50
2023-04-30T03:58:05.607Z,22.50
2023-04-30T03:59:05.556Z,28.12
2023-04-30T04:00:05.549Z,28.12
2023-04-30T04:01:05.525Z,28.12
2023-04-30T04:02:06.390Z,28.12
2023-04-30T04:03:05.636Z,28.12
2023-04-30T04:04:05.584Z,33.75
2023-04-30T04:05:05.487Z,33.75
2023-04-30T04:06:05.596Z,33.75
2023-04-30T04:07:05.459Z,33.75
2023-04-30T04:08:05.464Z,33.75
2023-04-30T04:09:05.489Z,39.38
2023-04-30T04:10:05.426Z,39.38
2023-04-30T04:11:05.424Z,39.38
2023-04-30T04:12:05.477Z,39.38
2023-04-30T04:13:05.417Z,39.38
2023-04-30T04:14:05.892Z,45.00
2023-04-30T04:15:05.398Z,45.00
2023-04-30T04:16:05.431Z,45.00
2023-04-30T04:17:05.371Z,45.00
2023-04-30T04:18:05.354Z,50.62
2023-04-30T04:19:05.349Z,50.62
2023-04-30T04:20:05.316Z,50.62
2023-04-30T04:21:05.315Z,50.62
2023-04-30T04:22:05.293Z,50.62
2023-04-30T04:23:05.348Z,56.25
2023-04-30T04:24:05.272Z,56.25
2023-04-30T04:25:05.295Z,56.25
2023-04-30T04:26:05.270Z,56.25
2023-04-30T04:27:05.242Z,56.25
2023-04-30T04:28:05.262Z,61.88
2023-04-30T04:29:05.220Z,61.88
2023-04-30T04:30:05.216Z,61.88
2023-04-30T04:31:05.198Z,61.88
2023-04-30T04:32:05.230Z,61.88
2023-04-30T04:33:05.248Z,67.50
2023-04-30T04:34:05.159Z,67.50
2023-04-30T04:35:05.151Z,67.50
2023-04-30T04:36:05.187Z,67.50
2023-04-30T04:37:05.171Z,67.50
2023-04-30T04:38:05.370Z,67.50
2023-04-30T04:39:05.127Z,73.12
2023-04-30T04:40:05.129Z,73.12
2023-04-30T04:41:05.119Z,73.12
2023-04-30T04:42:05.224Z,73.12
2023-04-30T04:43:05.061Z,73.12
2023-04-30T04:44:05.049Z,73.12
2023-04-30T04:45:05.034Z,78.75
2023-04-30T04:46:05.065Z,78.75
2023-04-30T04:47:05.016Z,78.75
2023-04-30T04:48:05.224Z,78.75
2023-04-30T04:49:05.020Z,78.75
2023-04-30T04:50:05.174Z,78.75
2023-04-30T04:51:04.994Z,84.38
2023-04-30T04:52:04.967Z,84.38
2023-04-30T04:53:04.948Z,84.38
2023-04-30T04:54:04.960Z,84.38
2023-04-30T04:55:04.954Z,84.38
2023-04-30T04:56:04.945Z,84.38
2023-04-30T04:57:04.935Z,90.00
2023-04-30T04:58:04.888Z,90.00
2023-04-30T04:59:04.898Z,90.00
2023-04-30T05:00:04.867Z,90.00
2023-04-30T05:01:04.864Z,90.00
2023-04-30T05:02:04.942Z,90.00
2023-04-30T05:03:04.911Z,95.62
2023-04-30T05:04:05.003Z,95.62
2023-04-30T05:05:04.829Z,95.62
2023-04-30T05:06:04.888Z,95.62
2023-04-30T05:07:04.801Z,95.62
2023-04-30T05:08:04.778Z,95.62
2023-04-30T05:09:04.770Z,101.25
2023-04-30T05:10:04.783Z,101.25
2023-04-30T05:11:04.749Z,101.25
2023-04-30T05:12:04.756Z,101.25
2023-04-30T05:13:04.742Z,101.25
2023-04-30T05:14:04.713Z,101.25
2023-04-30T05:15:04.719Z,101.25
2023-04-30T05:16:04.789Z,106.88
2023-04-30T05:17:04.775Z,106.88
2023-04-30T05:18:04.720Z,106.88
2023-04-30T05:19:04.765Z,106.88
2023-04-30T05:20:04.658Z,106.88
2023-04-30T05:21:04.637Z,112.50
2023-04-30T05:22:04.623Z,112.50
2023-04-30T05:23:04.613Z,112.50
2023-04-30T05:24:04.635Z,112.50
2023-04-30T05:25:04.591Z,112.50
2023-04-30T05:26:04.586Z,112.50
2023-04-30T05:27:04.563Z,118.12
2023-04-30T05:28:04.556Z,118.12
2023-04-30T05:29:04.569Z,118.12
2023-04-30T05:30:04.566Z,118.12
2023-04-30T05:31:04.535Z,118.12
2023-04-30T05:32:04.554Z,118.12
2023-04-30T05:33:04.535Z,123.75
2023-04-30T05:34:04.496Z,123.75
2023-04-30T05:35:04.514Z,123.75
2023-04-30T05:36:05.383Z,123.75
2023-04-30T05:37:04.453Z,123.75
2023-04-30T05:38:04.474Z,129.38
2023-04-30T05:39:04.438Z,135.00
2023-04-30T05:40:04.443Z,129.38
2023-04-30T05:41:04.431Z,135.00
2023-04-30T05:42:04.403Z,140.62
2023-04-30T05:43:04.395Z,146.25
2023-04-30T05:44:04.381Z,146.25
2023-04-30T05:45:04.420Z,151.88
2023-04-30T05:46:04.410Z,157.50
2023-04-30T05:47:04.355Z,163.12
2023-04-30T05:48:04.360Z,163.12
2023-04-30T05:49:04.339Z,168.75
2023-04-30T05:50:04.345Z,174.38
2023-04-30T05:51:04.300Z,180.00
2023-04-30T05:52:04.286Z,180.00
2023-04-30T05:53:04.301Z,185.62
2023-04-30T05:54:04.293Z,185.62
2023-04-30T05:55:12.056Z,191.25
2023-04-30T05:56:04.247Z,196.88
2023-04-30T05:57:04.937Z,196.88
2023-04-30T05:58:04.226Z,202.50
2023-04-30T05:59:04.230Z,208.12
2023-04-30T06:00:04.224Z,213.75
2023-04-30T06:01:04.209Z,219.38
2023-04-30T06:02:04.329Z,225.00
2023-04-30T06:03:04.231Z,230.62
2023-04-30T06:04:04.176Z,230.62
2023-04-30T06:05:04.254Z,236.25
2023-04-30T06:06:04.171Z,236.25
2023-04-30T06:07:04.120Z,241.88
2023-04-30T06:08:04.118Z,247.50
2023-04-30T06:09:04.103Z,253.12
2023-04-30T06:10:04.115Z,253.12
2023-04-30T06:11:04.104Z,258.75
2023-04-30T06:12:04.084Z,264.38
2023-04-30T06:13:04.084Z,270.00
2023-04-30T06:14:04.060Z,275.62
2023-04-30T06:15:04.060Z,281.25
2023-04-30T06:16:04.093Z,286.88
2023-04-30T06:17:04.947Z,292.50
2023-04-30T06:18:04.032Z,292.50
2023-04-30T06:19:04.024Z,298.12
2023-04-30T06:20:03.982Z,303.75
2023-04-30T06:21:03.977Z,309.38
2023-04-30T06:22:03.961Z,315.00
2023-04-30T06:23:04.084Z,326.25
2023-04-30T06:24:03.966Z,331.88
2023-04-30T06:25:03.956Z,337.50
2023-04-30T06:26:04.064Z,343.12
2023-04-30T06:27:03.904Z,343.12
2023-04-30T06:28:03.891Z,354.38
2023-04-30T06:29:03.880Z,360.00
2023-04-30T06:30:03.885Z,365.62
2023-04-30T06:31:03.905Z,371.25
2023-04-30T06:32:04.292Z,382.50
2023-04-30T06:33:04.086Z,393.75
2023-04-30T06:34:03.837Z,399.38
2023-04-30T06:35:03.832Z,416.25
2023-04-30T06:36:03.801Z,433.12
2023-04-30T06:37:03.803Z,455.62
2023-04-30T06:38:03.848Z,489.38
2023-04-30T06:39:03.852Z,540.00
2023-04-30T06:40:03.780Z,652.50
2023-04-30T06:41:03.745Z,815.62
2023-04-30T06:42:03.737Z,961.88
2023-04-30T06:43:03.718Z,1046.25
2023-04-30T06:44:03.748Z,1102.50
2023-04-30T06:45:03.755Z,1141.88
2023-04-30T06:46:03.724Z,1175.62
2023-04-30T06:47:03.692Z,1186.88
2023-04-30T06:48:03.707Z,1209.38
2023-04-30T06:49:03.679Z,1226.25
2023-04-30T06:50:03.703Z,1243.12
2023-04-30T06:51:03.640Z,1254.38
2023-04-30T06:52:03.633Z,1265.62
2023-04-30T06:53:03.609Z,1310.62
2023-04-30T06:54:03.599Z,1333.12
2023-04-30T06:55:03.580Z,1361.25
2023-04-30T06:56:03.590Z,1378.12
2023-04-30T06:57:03.563Z,1389.38
2023-04-30T06:58:03.555Z,1400.62
2023-04-30T06:59:03.543Z,1417.50
2023-04-30T07:00:03.550Z,1440.00
2023-04-30T07:01:03.596Z,1445.62
2023-04-30T07:02:03.512Z,1462.50
2023-04-30T07:03:03.691Z,1479.38
2023-04-30T07:04:03.484Z,1485.00
2023-04-30T07:05:03.530Z,1501.88
2023-04-30T07:06:03.507Z,1530.00
2023-04-30T07:07:03.470Z,1552.50
2023-04-30T07:08:03.436Z,1563.75
2023-04-30T07:09:03.468Z,1580.62
2023-04-30T07:10:03.420Z,1597.50
2023-04-30T07:11:03.404Z,1608.75
2023-04-30T07:12:03.395Z,1631.25
2023-04-30T07:13:03.379Z,1665.00
2023-04-30T07:14:03.405Z,1681.88
2023-04-30T07:15:03.397Z,1698.75
2023-04-30T07:16:03.369Z,1698.75
2023-04-30T07:17:03.341Z,1732.50
2023-04-30T07:18:03.384Z,1738.12
2023-04-30T07:19:03.317Z,1760.62
2023-04-30T07:20:03.334Z,1783.12
2023-04-30T07:21:03.366Z,1800.00
2023-04-30T07:22:03.287Z,1794.38
2023-04-30T07:23:03.270Z,1845.00
2023-04-30T07:24:03.276Z,1867.50
2023-04-30T07:25:03.248Z,1912.50
2023-04-30T07:26:03.236Z,1957.50
2023-04-30T07:27:03.224Z,2008.12
2023-04-30T07:28:03.946Z,2025.00
2023-04-30T07:29:03.209Z,2030.62
2023-04-30T07:30:03.198Z,2064.38
2023-04-30T07:31:03.205Z,2086.88
2023-04-30T07:32:03.374Z,2109.38
2023-04-30T07:33:03.298Z,2143.12
2023-04-30T07:34:03.160Z,2182.50
2023-04-30T07:35:03.139Z,2216.25
2023-04-30T07:36:03.149Z,2221.88
2023-04-30T07:37:03.320Z,2221.88
2023-04-30T07:38:03.118Z,1845.00
2023-04-30T07:39:03.094Z,2227.50
2023-04-30T07:40:03.145Z,2233.12
2023-04-30T07:41:03.094Z,2210.62
2023-04-30T07:42:03.065Z,2238.75
2023-04-30T07:43:03.053Z,2244.38
2023-04-30T07:44:03.041Z,2300.62
2023-04-30T07:45:03.042Z,2300.62
2023-04-30T07:46:03.049Z,2317.50
2023-04-30T07:47:03.009Z,2340.00
2023-04-30T07:48:03.105Z,2373.75
2023-04-30T07:49:02.986Z,2418.75
2023-04-30T07:50:02.980Z,2413.12
2023-04-30T07:51:02.986Z,2413.12
2023-04-30T07:52:02.952Z,2430.00
2023-04-30T07:53:02.964Z,2323.12
2023-04-30T07:54:02.948Z,2424.38
2023-04-30T07:55:02.948Z,2581.88
2023-04-30T07:56:02.912Z,1153.12
2023-04-30T07:57:02.912Z,703.12
2023-04-30T07:58:02.960Z,2401.88
2023-04-30T07:59:02.893Z,2548.12
2023-04-30T08:00:02.891Z,2559.38
2023-04-30T08:01:02.860Z,2581.88
2023-04-30T08:02:02.890Z,2362.50
2023-04-30T08:03:02.900Z,2739.38
2023-04-30T08:04:02.925Z,2705.62
2023-04-30T08:05:02.813Z,2666.25
2023-04-30T08:06:02.909Z,2655.00
2023-04-30T08:07:02.817Z,2716.88
2023-04-30T08:08:02.791Z,2604.38
2023-04-30T08:09:02.789Z,2626.88
2023-04-30T08:10:02.782Z,2621.25
2023-04-30T08:11:02.902Z,2683.12
2023-04-30T08:12:02.753Z,2683.12
2023-04-30T08:13:02.731Z,2671.88
2023-04-30T08:14:02.722Z,2722.50
2023-04-30T08:15:02.709Z,2750.62
2023-04-30T08:16:02.734Z,2750.62
2023-04-30T08:17:02.740Z,2745.00
2023-04-30T08:18:02.800Z,2761.88
2023-04-30T08:19:02.670Z,2778.75
2023-04-30T08:20:02.661Z,2806.88
2023-04-30T08:21:02.650Z,2795.62
2023-04-30T08:22:02.656Z,2818.12
2023-04-30T08:23:02.631Z,2851.88
2023-04-30T08:24:02.611Z,2835.00
2023-04-30T08:25:02.619Z,2857.50
2023-04-30T08:26:02.593Z,2863.12
2023-04-30T08:27:02.601Z,2880.00
2023-04-30T08:28:02.572Z,2891.25
2023-04-30T08:29:02.591Z,2863.12
2023-04-30T08:30:02.559Z,2891.25
2023-04-30T08:31:02.536Z,2902.50
2023-04-30T08:32:02.562Z,2880.00
2023-04-30T08:33:03.502Z,2896.88
2023-04-30T08:34:02.524Z,2880.00
2023-04-30T08:35:02.507Z,2874.38
2023-04-30T08:36:02.480Z,2902.50
2023-04-30T08:37:02.493Z,2908.12
2023-04-30T08:38:02.552Z,2913.75
2023-04-30T08:39:02.464Z,2919.38
2023-04-30T08:40:02.454Z,2896.88
2023-04-30T08:41:02.451Z,2896.88
2023-04-30T08:42:02.444Z,2919.38
2023-04-30T08:43:02.552Z,2925.00
2023-04-30T08:44:02.425Z,2947.50
2023-04-30T08:45:02.440Z,2958.75
2023-04-30T08:46:02.435Z,2953.12
2023-04-30T08:47:02.385Z,2953.12
2023-04-30T08:48:02.412Z,3003.75
2023-04-30T08:49:02.375Z,2986.88
2023-04-30T08:50:02.340Z,2992.50
2023-04-30T08:51:02.322Z,3026.25
2023-04-30T08:52:02.381Z,3043.12
2023-04-30T08:53:02.326Z,3037.50
2023-04-30T08:54:02.309Z,3043.12
2023-04-30T08:55:02.288Z,3048.75
2023-04-30T08:56:02.273Z,3031.88
2023-04-30T08:57:02.293Z,3060.00
2023-04-30T08:58:02.273Z,3076.88
2023-04-30T08:59:02.240Z,3054.38
2023-04-30T09:00:02.260Z,3071.25
2023-04-30T09:01:02.235Z,3116.25
2023-04-30T09:02:02.429Z,3076.88
2023-04-30T09:03:02.297Z,3060.00
2023-04-30T09:04:02.302Z,3099.38
2023-04-30T09:05:02.188Z,3121.88
2023-04-30T09:06:02.191Z,3099.38
2023-04-30T09:07:04.427Z,3121.88
2023-04-30T09:08:04.154Z,3133.12
2023-04-30T09:09:02.140Z,3138.75
2023-04-30T09:10:02.131Z,3138.75
2023-04-30T09:11:02.133Z,3144.38
2023-04-30T09:12:02.112Z,3144.38
2023-04-30T09:13:02.136Z,3127.50
2023-04-30T09:14:02.092Z,3155.62
2023-04-30T09:15:02.087Z,3172.50
2023-04-30T09:16:02.100Z,3166.88
2023-04-30T09:17:02.062Z,3161.25
2023-04-30T09:18:02.100Z,3166.88
2023-04-30T09:19:02.045Z,3189.38
2023-04-30T09:20:02.031Z,3189.38
2023-04-30T09:21:02.047Z,3200.62
2023-04-30T09:22:02.021Z,3211.88
2023-04-30T09:23:02.099Z,3223.12
2023-04-30T09:24:01.994Z,3234.38
2023-04-30T09:25:02.002Z,3262.50
2023-04-30T09:26:01.963Z,3268.12
2023-04-30T09:27:01.959Z,3251.25
2023-04-30T09:28:01.964Z,3279.38
2023-04-30T09:29:01.959Z,3324.38
2023-04-30T09:30:01.950Z,3313.12
2023-04-30T09:31:01.957Z,3301.88
2023-04-30T09:32:02.014Z,3313.12
2023-04-30T09:33:02.023Z,3335.62
2023-04-30T09:34:01.892Z,3352.50
2023-04-30T09:35:01.922Z,3324.38
2023-04-30T09:36:01.879Z,3341.25
2023-04-30T09:37:01.872Z,3341.25
2023-04-30T09:38:01.878Z,3330.00
2023-04-30T09:39:01.841Z,3352.50
2023-04-30T09:40:01.868Z,3369.38
2023-04-30T09:41:01.898Z,3369.38
2023-04-30T09:42:01.834Z,3352.50
2023-04-30T09:43:01.806Z,3358.12
2023-04-30T09:44:01.828Z,3403.12
2023-04-30T09:45:02.031Z,3397.50
2023-04-30T09:46:01.805Z,3391.88
2023-04-30T09:47:01.800Z,3386.25
2023-04-30T09:48:15.806Z,3414.38
2023-04-30T09:49:02.777Z,3408.75
2023-04-30T09:50:01.744Z,3403.12
2023-04-30T09:51:01.717Z,3431.25
2023-04-30T09:52:01.756Z,3470.62
2023-04-30T09:53:01.699Z,3481.88
2023-04-30T09:54:01.696Z,3448.12
2023-04-30T09:55:01.692Z,3431.25
2023-04-30T09:56:01.674Z,3453.75
2023-04-30T09:57:02.186Z,3448.12
2023-04-30T09:58:01.659Z,3448.12
2023-04-30T09:59:02.512Z,3465.00
2023-04-30T10:00:01.675Z,3487.50
2023-04-30T10:01:01.881Z,3515.62
2023-04-30T10:02:01.663Z,3521.25
2023-04-30T10:03:01.672Z,3498.75
2023-04-30T10:04:01.761Z,3465.00
2023-04-30T10:05:01.586Z,3465.00
2023-04-30T10:06:01.619Z,3465.00
2023-04-30T10:07:01.587Z,3504.38
2023-04-30T10:08:01.582Z,3487.50
2023-04-30T10:09:01.640Z,3470.62
2023-04-30T10:10:01.539Z,3481.88
2023-04-30T10:11:01.547Z,3470.62
2023-04-30T10:12:01.526Z,3448.12
2023-04-30T10:13:01.554Z,3459.38
2023-04-30T10:14:01.499Z,3470.62
2023-04-30T10:15:01.495Z,3459.38
2023-04-30T10:16:01.499Z,3453.75
2023-04-30T10:17:01.507Z,3465.00
2023-04-30T10:18:01.516Z,3470.62
2023-04-30T10:19:01.465Z,3459.38
2023-04-30T10:20:01.468Z,3470.62
2023-04-30T10:21:01.441Z,3487.50
2023-04-30T10:22:01.420Z,3526.88
2023-04-30T10:23:01.414Z,3510.00
2023-04-30T10:24:01.426Z,3465.00
2023-04-30T10:25:01.392Z,3459.38
2023-04-30T10:26:01.394Z,3459.38
2023-04-30T10:27:01.372Z,3442.50
2023-04-30T10:28:03.973Z,3448.12
2023-04-30T10:29:01.413Z,3487.50
2023-04-30T10:30:01.410Z,3487.50
2023-04-30T10:31:01.342Z,3476.25
2023-04-30T10:32:01.400Z,3459.38
2023-04-30T10:33:02.008Z,3476.25
2023-04-30T10:34:01.318Z,3543.75
2023-04-30T10:35:01.345Z,3498.75
2023-04-30T10:36:01.316Z,3470.62
2023-04-30T10:37:01.296Z,3487.50
2023-04-30T10:38:01.270Z,3521.25
2023-04-30T10:39:01.285Z,3481.88
2023-04-30T10:40:01.254Z,3448.12
2023-04-30T10:41:01.274Z,3465.00
2023-04-30T10:42:01.226Z,3487.50
2023-04-30T10:43:01.223Z,3465.00
2023-04-30T10:44:02.106Z,3425.62
2023-04-30T10:45:01.252Z,3448.12
2023-04-30T10:46:01.300Z,3481.88
2023-04-30T10:47:01.199Z,3498.75
2023-04-30T10:48:01.257Z,3498.75
2023-04-30T10:49:01.183Z,3515.62
2023-04-30T10:50:01.151Z,3504.38
2023-04-30T10:51:01.183Z,3476.25
2023-04-30T10:52:01.158Z,3453.75
2023-04-30T10:53:01.129Z,3487.50
2023-04-30T10:54:01.149Z,3493.12
2023-04-30T10:55:01.108Z,3481.88
2023-04-30T10:56:01.109Z,3453.75
2023-04-30T10:57:01.085Z,3442.50
2023-04-30T10:58:01.109Z,3465.00
2023-04-30T10:59:01.095Z,3436.88
2023-04-30T11:00:01.119Z,3391.88
2023-04-30T11:01:01.140Z,3391.88
2023-04-30T11:02:01.253Z,3403.12
2023-04-30T11:03:01.058Z,3386.25
2023-04-30T11:04:01.191Z,3346.88
2023-04-30T11:05:01.055Z,3375.00
2023-04-30T11:06:01.056Z,3391.88
2023-04-30T11:07:00.996Z,3358.12
2023-04-30T11:08:00.987Z,3324.38
2023-04-30T11:09:01.012Z,3358.12
2023-04-30T11:10:00.969Z,3363.75
2023-04-30T11:11:00.953Z,3318.75
2023-04-30T11:12:00.955Z,3301.88
2023-04-30T11:13:01.737Z,3318.75
2023-04-30T11:14:01.030Z,3301.88
2023-04-30T11:15:00.938Z,3313.12
2023-04-30T11:16:00.932Z,3330.00
2023-04-30T11:17:00.897Z,3330.00
2023-04-30T11:18:01.048Z,3296.25
2023-04-30T11:19:00.920Z,3307.50
2023-04-30T11:20:00.874Z,3346.88
2023-04-30T11:21:00.890Z,3352.50
2023-04-30T11:22:00.857Z,3296.25
2023-04-30T11:23:00.856Z,3273.75
2023-04-30T11:24:00.879Z,3324.38
2023-04-30T11:25:00.826Z,3335.62
2023-04-30T11:26:00.818Z,3268.12
2023-04-30T11:27:00.823Z,3245.62
2023-04-30T11:28:00.800Z,3268.12
2023-04-30T11:29:00.842Z,3290.62
2023-04-30T11:30:00.837Z,3228.75
2023-04-30T11:31:00.812Z,3206.25
2023-04-30T11:32:00.821Z,3262.50
2023-04-30T11:33:00.861Z,3279.38
2023-04-30T11:34:00.764Z,3217.50
2023-04-30T11:35:00.733Z,3183.75
2023-04-30T11:36:00.734Z,3206.25
2023-04-30T11:37:00.882Z,3251.25
2023-04-30T11:38:00.701Z,3234.38
2023-04-30T11:39:00.848Z,3206.25
2023-04-30T11:40:00.712Z,3240.00
2023-04-30T11:41:00.691Z,3223.12
2023-04-30T11:42:00.730Z,3178.12
2023-04-30T11:43:00.668Z,3155.62
2023-04-30T11:44:00.661Z,3161.25
2023-04-30T11:45:00.655Z,3166.88
2023-04-30T11:46:00.632Z,3166.88
2023-04-30T11:47:00.717Z,3155.62
2023-04-30T11:48:00.682Z,3183.75
2023-04-30T11:49:00.609Z,3211.88
2023-04-30T11:50:00.616Z,3200.62
2023-04-30T11:51:00.578Z,3172.50
2023-04-30T11:52:00.585Z,3144.38
2023-04-30T11:53:00.587Z,3155.62
2023-04-30T11:54:00.586Z,3189.38
2023-04-30T11:55:00.563Z,3183.75
2023-04-30T11:56:10.059Z,3127.50
2023-04-30T11:57:00.524Z,3110.62
2023-04-30T11:58:00.519Z,3116.25
2023-04-30T11:59:00.511Z,3093.75
2023-04-30T12:00:00.514Z,3060.00
2023-04-30T12:01:00.487Z,3082.50
2023-04-30T12:02:00.494Z,3093.75
2023-04-30T12:03:00.783Z,3105.00
2023-04-30T12:04:00.641Z,3093.75
2023-04-30T12:05:00.477Z,3093.75
2023-04-30T12:06:00.544Z,3110.62
2023-04-30T12:07:00.486Z,3116.25
2023-04-30T12:08:00.427Z,3105.00
2023-04-30T12:09:00.634Z,3099.38
2023-04-30T12:10:00.475Z,3127.50
2023-04-30T12:11:00.436Z,3138.75
2023-04-30T12:12:00.386Z,3110.62
2023-04-30T12:13:00.381Z,3116.25
2023-04-30T12:14:00.365Z,3121.88
2023-04-30T12:15:00.372Z,3099.38
2023-04-30T12:16:00.353Z,3071.25
2023-04-30T12:17:00.436Z,3082.50
2023-04-30T12:18:00.454Z,3093.75
2023-04-30T12:19:00.326Z,3071.25
2023-04-30T12:20:00.333Z,3060.00
2023-04-30T12:21:00.300Z,3060.00
2023-04-30T12:22:00.300Z,3026.25
2023-04-30T12:23:00.299Z,3015.00
2023-04-30T12:24:02.755Z,3037.50
2023-04-30T12:25:00.304Z,3065.62
2023-04-30T12:26:00.251Z,3043.12
2023-04-30T12:27:01.081Z,3009.38
2023-04-30T12:28:00.233Z,3009.38
2023-04-30T12:29:00.528Z,2953.12
2023-04-30T12:30:00.245Z,2885.62
2023-04-30T12:31:00.206Z,2857.50
2023-04-30T12:32:00.276Z,2846.25
2023-04-30T12:33:05.183Z,2818.12
2023-04-30T12:34:00.182Z,2823.75